createdAt,value
2018-06-03T00:00:52.028Z,59.90
2018-06-03T00:05:54.729Z,59.80
2018-06-03T00:10:57.227Z,59.80
2018-06-03T00:15:59.747Z,59.80
2018-06-03T00:21:28.060Z,59.90
2018-06-03T00:26:30.548Z,60.10
2018-06-03T00:31:33.044Z,60.00
2018-06-03T00:36:46.401Z,60.70
2018-06-03T00:41:48.927Z,60.50
2018-06-03T00:46:51.412Z,60.00
2018-06-03T00:51:53.899Z,60.00
2018-06-03T00:57:08.107Z,60.10
2018-06-03T01:02:10.591Z,59.90
2018-06-03T01:07:13.080Z,60.00
2018-06-03T01:12:15.572Z,60.00
2018-06-03T01:17:18.052Z,60.10
2018-06-03T01:22:21.305Z,60.00
2018-06-03T01:27:23.792Z,60.10
2018-06-03T01:32:26.276Z,60.20
2018-06-03T01:37:28.783Z,59.80
2018-06-03T01:42:31.264Z,60.00
2018-06-03T01:47:33.740Z,60.30
2018-06-03T01:52:36.233Z,60.10
2018-06-03T01:57:38.716Z,60.00
2018-06-03T02:02:41.200Z,59.90
2018-06-03T02:07:43.687Z,60.00
2018-06-03T02:12:46.179Z,60.30
2018-06-03T02:17:48.664Z,60.00
2018-06-03T02:22:51.154Z,60.00
2018-06-03T02:27:53.676Z,60.50
2018-06-03T02:32:56.148Z,60.30
2018-06-03T02:37:58.631Z,60.20
2018-06-03T02:43:01.116Z,60.20
2018-06-03T02:48:03.595Z,60.40
2018-06-03T02:53:06.077Z,60.40
2018-06-03T02:58:08.572Z,60.50
2018-06-03T03:03:11.047Z,60.60
2018-06-03T03:08:13.525Z,60.60
2018-06-03T03:13:16.008Z,60.30
2018-06-03T03:18:18.502Z,60.50
2018-06-03T03:23:20.992Z,60.60
2018-06-03T03:28:23.468Z,60.80
2018-06-03T03:33:25.953Z,60.60
2018-06-03T03:38:28.428Z,60.60
2018-06-03T03:43:31.683Z,61.60
2018-06-03T03:48:34.161Z,60.50
2018-06-03T03:53:36.640Z,60.80
2018-06-03T03:58:39.118Z,60.40
2018-06-03T04:03:42.383Z,60.70
2018-06-03T04:08:44.860Z,60.70
2018-06-03T04:13:47.349Z,60.60
2018-06-03T04:18:49.820Z,60.50
2018-06-03T04:23:52.303Z,60.70
2018-06-03T04:28:55.563Z,60.80
2018-06-03T04:34:31.387Z,61.10
2018-06-03T04:39:34.619Z,61.00
2018-06-03T04:44:37.860Z,61.20
2018-06-03T04:49:41.077Z,61.30
2018-06-03T04:54:44.304Z,61.50
2018-06-03T04:59:47.520Z,61.50
2018-06-03T05:04:50.747Z,61.40
2018-06-03T05:09:53.980Z,61.60
2018-06-03T05:14:57.203Z,61.70
2018-06-03T05:20:00.443Z,61.70
2018-06-03T05:25:03.659Z,61.50
2018-06-03T05:30:06.900Z,62.00
2018-06-03T05:35:10.124Z,62.50
2018-06-03T05:40:13.360Z,61.80
2018-06-03T05:45:16.603Z,61.80
2018-06-03T05:50:19.831Z,61.70
2018-06-03T06:00:26.072Z,61.60
2018-06-03T06:05:29.331Z,61.60
2018-06-03T06:10:32.551Z,61.40
2018-06-03T06:15:35.779Z,61.60
2018-06-03T06:20:39.019Z,61.50
2018-06-03T06:25:42.247Z,61.80
2018-06-03T06:30:45.482Z,61.60
2018-06-03T06:35:48.736Z,61.50
2018-06-03T06:40:51.959Z,61.10
2018-06-03T06:45:55.207Z,61.10
2018-06-03T06:50:58.452Z,61.60
2018-06-03T06:56:01.694Z,61.30
2018-06-03T07:01:04.912Z,61.20
2018-06-03T07:06:08.177Z,61.40
2018-06-03T07:11:11.392Z,61.20
2018-06-03T07:16:14.612Z,61.20
2018-06-03T07:26:20.908Z,60.90
2018-06-03T07:31:24.139Z,61.20
2018-06-03T07:36:27.364Z,61.70
2018-06-03T07:41:30.579Z,60.80
2018-06-03T07:46:33.815Z,60.70
2018-06-03T07:51:37.028Z,60.70
2018-06-03T07:56:40.248Z,61.30
2018-06-03T08:01:43.535Z,61.10
2018-06-03T08:06:46.792Z,60.80
2018-06-03T08:11:50.092Z,61.00
2018-06-03T08:16:53.359Z,60.80
2018-06-03T08:21:56.591Z,60.40
2018-06-03T08:26:59.808Z,60.60
2018-06-03T08:32:03.091Z,60.70
2018-06-03T08:37:06.361Z,60.70
2018-06-03T08:42:09.591Z,60.60
2018-06-03T08:47:12.822Z,60.30
2018-06-03T08:52:16.145Z,60.40
2018-06-03T08:57:19.408Z,60.90
2018-06-03T09:02:22.635Z,60.20
2018-06-03T09:07:25.883Z,60.20
2018-06-03T09:12:29.119Z,60.50
2018-06-03T09:17:32.348Z,61.10
2018-06-03T09:22:35.577Z,61.20
2018-06-03T09:27:38.868Z,61.00
2018-06-03T09:32:42.105Z,60.60
2018-06-03T09:37:45.459Z,60.70
2018-06-03T09:42:48.937Z,60.80
2018-06-03T09:47:52.170Z,61.40
2018-06-03T09:52:55.401Z,60.60
2018-06-03T09:57:58.635Z,60.70
2018-06-03T10:03:02.372Z,61.50
2018-06-03T10:08:05.629Z,59.80
2018-06-03T10:13:08.911Z,59.30
2018-06-03T10:18:12.139Z,60.20
2018-06-03T10:23:15.369Z,59.80
2018-06-03T10:28:18.609Z,58.70
2018-06-03T10:33:22.096Z,60.50
2018-06-03T10:38:25.362Z,60.00
2018-06-03T10:43:28.603Z,59.30
2018-06-03T10:48:31.844Z,59.50
2018-06-03T10:53:35.132Z,58.30
2018-06-03T10:58:38.389Z,59.60
2018-06-03T11:03:43.812Z,59.70
2018-06-03T11:08:47.061Z,59.40
2018-06-03T11:13:50.300Z,59.10
2018-06-03T11:18:53.533Z,60.60
2018-06-03T11:23:56.787Z,59.80
2018-06-03T11:29:00.014Z,60.20
2018-06-03T11:34:03.752Z,59.20
2018-06-03T11:39:08.303Z,58.80
2018-06-03T11:44:11.541Z,59.70
2018-06-03T11:49:14.801Z,59.20
2018-06-03T11:54:18.044Z,59.40
2018-06-03T11:59:32.759Z,60.40
2018-06-03T12:04:36.226Z,59.30
2018-06-03T12:09:39.487Z,58.30
2018-06-03T12:14:42.735Z,58.10
2018-06-03T12:19:46.010Z,59.00
2018-06-03T12:24:52.065Z,58.50
2018-06-03T12:30:03.656Z,59.60
2018-06-03T12:36:10.233Z,58.70
2018-06-03T12:41:13.635Z,56.50
2018-06-03T12:46:18.197Z,59.10
2018-06-03T12:51:21.677Z,59.20
2018-06-03T12:56:25.159Z,58.70
2018-06-03T13:01:28.602Z,56.40
2018-06-03T13:06:32.025Z,60.10
2018-06-03T13:11:35.293Z,59.00
2018-06-03T13:16:38.607Z,58.10
2018-06-03T13:21:41.848Z,58.20
2018-06-03T13:26:45.088Z,59.00
2018-06-03T13:31:48.324Z,59.40
2018-06-03T13:36:51.584Z,58.30
2018-06-03T13:41:54.860Z,58.40
2018-06-03T13:46:58.640Z,57.70
2018-06-03T13:52:01.893Z,59.30
2018-06-03T13:57:05.147Z,58.90
2018-06-03T14:02:08.409Z,58.90
2018-06-03T14:07:11.667Z,59.10
2018-06-03T14:12:14.908Z,57.80
2018-06-03T14:17:18.164Z,57.60
2018-06-03T14:22:21.532Z,59.00
2018-06-03T14:27:25.082Z,58.50
2018-06-03T14:32:28.327Z,58.90
2018-06-03T14:37:31.612Z,59.10
2018-06-03T14:47:47.696Z,56.40
2018-06-03T14:52:50.964Z,56.00
2018-06-03T14:57:54.663Z,56.20
2018-06-03T15:02:59.109Z,57.30
2018-06-03T15:08:02.555Z,57.40
2018-06-03T15:13:05.857Z,57.20
2018-06-03T15:18:09.139Z,57.00
2018-06-03T15:23:12.396Z,57.00
2018-06-03T15:28:15.632Z,57.00
2018-06-03T15:33:18.886Z,57.00
2018-06-03T15:38:22.203Z,56.60
2018-06-03T15:43:25.427Z,56.80
2018-06-03T15:48:28.637Z,57.00
2018-06-03T15:58:34.991Z,55.90
2018-06-03T16:03:38.227Z,56.40
2018-06-03T16:08:41.531Z,56.10
2018-06-03T16:13:44.755Z,56.20
2018-06-03T16:18:47.993Z,56.40
2018-06-03T16:23:51.329Z,56.20
2018-06-03T16:28:54.512Z,55.60
2018-06-03T16:33:57.725Z,55.10
2018-06-03T16:39:01.776Z,56.10
2018-06-03T16:44:05.012Z,55.80
2018-06-03T16:49:08.241Z,55.20
2018-06-03T16:54:11.472Z,55.60
2018-06-03T16:59:14.681Z,55.00
2018-06-03T17:04:17.912Z,55.40
2018-06-03T17:09:21.131Z,55.20
2018-06-03T17:14:24.439Z,55.70
2018-06-03T17:19:27.656Z,55.60
2018-06-03T17:24:30.892Z,55.60
2018-06-03T17:29:34.803Z,55.10
2018-06-03T17:34:38.004Z,55.60
2018-06-03T17:39:41.211Z,55.80
2018-06-03T17:46:52.604Z,55.80
2018-06-03T17:51:55.816Z,55.70
2018-06-03T17:56:59.036Z,56.20
2018-06-03T18:02:02.282Z,55.80
2018-06-03T18:07:05.508Z,55.30
2018-06-03T18:12:08.756Z,55.30
2018-06-03T18:17:12.001Z,55.30
2018-06-03T18:22:15.195Z,55.50
2018-06-03T18:27:18.412Z,55.50
2018-06-03T18:32:21.635Z,55.60
2018-06-03T18:37:24.857Z,56.20
2018-06-03T18:42:28.096Z,56.20
2018-06-03T18:47:31.321Z,56.10
2018-06-03T18:52:34.563Z,56.20
2018-06-03T18:57:37.810Z,56.80
2018-06-03T19:02:41.003Z,56.50
2018-06-03T19:07:44.250Z,56.60
2018-06-03T19:12:47.936Z,56.70
2018-06-03T19:17:51.453Z,56.90
2018-06-03T19:22:54.700Z,56.80
2018-06-03T19:27:57.936Z,56.90
2018-06-03T19:33:01.152Z,57.00
2018-06-03T19:38:04.364Z,57.10
2018-06-03T19:43:07.573Z,57.20
2018-06-03T19:48:10.779Z,57.20
2018-06-03T19:53:14.151Z,57.30
2018-06-03T19:58:17.346Z,57.20
2018-06-03T20:03:20.551Z,57.30
2018-06-03T20:08:23.793Z,57.20
2018-06-03T20:13:27.010Z,57.20
2018-06-03T20:18:30.351Z,57.10
2018-06-03T20:23:34.535Z,57.40
2018-06-03T20:28:37.803Z,57.30
2018-06-03T20:33:41.035Z,57.50
2018-06-03T20:38:44.259Z,57.50
2018-06-03T20:43:47.475Z,57.60
2018-06-03T20:48:50.705Z,57.60
2018-06-03T20:53:53.925Z,57.60
2018-06-03T20:58:57.151Z,57.60
2018-06-03T21:04:00.355Z,57.60
2018-06-03T21:09:04.609Z,57.60
2018-06-03T21:14:07.844Z,57.70
2018-06-03T21:19:11.093Z,57.70
2018-06-03T21:24:14.368Z,57.70
2018-06-03T21:29:17.613Z,57.90
2018-06-03T21:34:20.887Z,58.00
2018-06-03T21:39:24.136Z,58.10
2018-06-03T21:44:27.380Z,58.20
2018-06-03T21:49:30.647Z,58.30
2018-06-03T21:54:33.875Z,58.30
2018-06-03T21:59:37.167Z,58.40
2018-06-03T22:04:40.421Z,58.30
2018-06-03T22:09:43.676Z,58.40
2018-06-03T22:14:46.952Z,58.40
2018-06-03T22:19:50.196Z,58.40
2018-06-03T22:24:53.507Z,58.40
2018-06-03T22:29:56.763Z,58.30
2018-06-03T22:35:00.024Z,58.40
2018-06-03T22:40:03.312Z,58.40
2018-06-03T22:45:06.565Z,58.40
2018-06-03T22:50:09.897Z,58.40
2018-06-03T22:55:13.079Z,58.30
2018-06-03T23:00:23.020Z,58.40
2018-06-03T23:05:26.447Z,58.50
2018-06-03T23:10:29.699Z,58.50
2018-06-03T23:15:32.954Z,58.50
2018-06-03T23:20:36.203Z,58.30
2018-06-03T23:25:39.419Z,58.70
2018-06-03T23:30:42.615Z,58.60
2018-06-03T23:35:45.840Z,58.80
2018-06-03T23:40:49.096Z,58.40
2018-06-03T23:45:52.329Z,58.00
2018-06-03T23:50:55.556Z,58.60
2018-06-03T23:55:58.768Z,58.70
